createdAt,value
2023-03-02T00:04:30.932Z,3.2
2023-03-02T00:09:37.150Z,3.2
2023-03-02T00:14:43.468Z,3.1
2023-03-02T00:19:49.550Z,3.1
2023-03-02T00:24:55.760Z,3.1
2023-03-02T00:30:01.961Z,3.2
2023-03-02T00:35:08.179Z,3.1
2023-03-02T00:40:14.382Z,3.1
2023-03-02T00:45:20.592Z,3.1
2023-03-02T00:50:26.789Z,3.1
2023-03-02T00:55:33.007Z,3.1
2023-03-02T01:00:39.219Z,3.1
2023-03-02T01:05:45.449Z,3.1
2023-03-02T01:10:53.946Z,3.0
2023-03-02T01:15:57.888Z,3.0
2023-03-02T01:21:03.072Z,3.0
2023-03-02T01:26:09.282Z,3.0
2023-03-02T01:31:14.564Z,2.9
2023-03-02T01:36:20.717Z,2.9
2023-03-02T01:41:26.927Z,2.9
2023-03-02T01:46:33.473Z,2.9
2023-03-02T01:51:39.344Z,2.8
2023-03-02T01:56:45.548Z,2.8
2023-03-02T02:01:51.774Z,2.8
2023-03-02T02:06:57.961Z,2.8
2023-03-02T02:12:04.480Z,2.7
2023-03-02T02:17:10.393Z,2.7
2023-03-02T02:22:16.585Z,2.6
2023-03-02T02:27:22.792Z,2.6
2023-03-02T02:32:29.015Z,2.6
2023-03-02T02:37:35.218Z,2.5
2023-03-02T02:42:41.412Z,2.5
2023-03-02T02:47:47.662Z,2.5
2023-03-02T02:52:53.824Z,2.5
2023-03-02T02:58:00.037Z,2.5
2023-03-02T03:03:06.257Z,2.6
2023-03-02T03:08:12.455Z,2.5
2023-03-02T03:13:18.648Z,2.5
2023-03-02T03:18:23.895Z,2.5
2023-03-02T03:23:29.109Z,2.5
2023-03-02T03:28:34.353Z,2.6
2023-03-02T03:33:40.545Z,2.5
2023-03-02T03:38:46.751Z,2.6
2023-03-02T03:43:52.967Z,2.6
2023-03-02T03:48:59.174Z,2.6
2023-03-02T03:54:05.413Z,2.6
2023-03-02T03:59:11.595Z,2.6
2023-03-02T04:04:18.063Z,2.6
2023-03-02T04:09:24.060Z,2.5
2023-03-02T04:14:30.232Z,2.5
2023-03-02T04:19:36.427Z,2.5
2023-03-02T04:24:42.638Z,2.5
2023-03-02T04:29:48.858Z,2.4
2023-03-02T04:34:55.366Z,2.4
2023-03-02T04:40:01.281Z,2.4
2023-03-02T04:45:07.511Z,2.4
2023-03-02T04:50:13.706Z,2.4
2023-03-02T04:55:19.905Z,2.4
2023-03-02T05:00:26.101Z,2.4
2023-03-02T05:05:32.328Z,2.4
2023-03-02T05:10:38.518Z,2.3
2023-03-02T05:15:43.791Z,2.3
2023-03-02T05:20:49.956Z,2.3
2023-03-02T05:25:55.188Z,2.3
2023-03-02T05:31:01.420Z,2.2
2023-03-02T05:36:07.604Z,2.2
2023-03-02T05:41:13.815Z,2.2
2023-03-02T05:46:22.001Z,2.1
2023-03-02T05:51:26.246Z,2.1
2023-03-02T05:56:32.880Z,2.1
2023-03-02T06:01:38.715Z,2.1
2023-03-02T06:06:44.856Z,2.0
2023-03-02T06:11:51.069Z,2.0
2023-03-02T06:16:57.389Z,2.0
2023-03-02T06:22:03.483Z,1.9
2023-03-02T06:27:09.694Z,1.9
2023-03-02T06:32:16.098Z,1.8
2023-03-02T06:37:22.113Z,1.8
2023-03-02T06:42:28.310Z,1.8
2023-03-02T06:47:34.522Z,1.8
2023-03-02T06:52:40.725Z,1.8
2023-03-02T06:57:46.928Z,1.8
2023-03-02T07:02:53.138Z,1.7
2023-03-02T07:07:59.341Z,1.8
2023-03-02T07:13:04.585Z,1.9
2023-03-02T07:18:10.782Z,2.0
2023-03-02T07:23:16.014Z,2.1
2023-03-02T07:28:22.226Z,2.2
2023-03-02T07:33:28.438Z,2.3
2023-03-02T07:38:34.639Z,2.4
2023-03-02T07:43:40.876Z,2.4
2023-03-02T07:48:47.056Z,2.5
2023-03-02T07:53:53.264Z,2.6
2023-03-02T07:58:59.481Z,2.7
2023-03-02T08:04:05.745Z,2.8
2023-03-02T08:09:11.896Z,2.9
2023-03-02T08:14:18.102Z,2.9
2023-03-02T08:19:24.310Z,3.0
2023-03-02T08:24:30.522Z,3.1
2023-03-02T08:29:36.723Z,3.2
2023-03-02T08:34:42.948Z,3.3
2023-03-02T08:39:49.144Z,3.4
2023-03-02T08:44:55.532Z,3.6
2023-03-02T08:50:01.553Z,3.7
2023-03-02T08:55:07.958Z,3.9
2023-03-02T09:00:13.953Z,4.0
2023-03-02T09:05:20.169Z,4.2
2023-03-02T09:10:25.402Z,4.5
2023-03-02T09:15:31.659Z,4.7
2023-03-02T09:20:36.843Z,4.9
2023-03-02T09:25:44.682Z,5.1
2023-03-02T09:30:49.489Z,5.3
2023-03-02T09:35:55.472Z,5.5
2023-03-02T09:41:01.705Z,5.7
2023-03-02T09:46:07.984Z,5.9
2023-03-02T09:51:14.089Z,6.0
2023-03-02T09:56:20.304Z,6.2
2023-03-02T10:01:26.510Z,6.4
2023-03-02T10:06:33.061Z,6.5
2023-03-02T10:11:38.934Z,6.7
2023-03-02T10:16:45.126Z,6.9
2023-03-02T10:21:51.339Z,7.0
2023-03-02T10:26:57.674Z,7.2
2023-03-02T10:32:03.844Z,7.4
2023-03-02T10:37:09.956Z,7.5
2023-03-02T10:42:16.250Z,7.7
2023-03-02T10:47:22.363Z,7.8
2023-03-02T10:52:28.592Z,7.9
2023-03-02T10:57:34.776Z,8.0
2023-03-02T11:02:41.004Z,8.2
2023-03-02T11:07:46.226Z,8.3
2023-03-02T11:12:52.433Z,8.4
2023-03-02T11:17:58.653Z,8.6
2023-03-02T11:23:03.873Z,8.8
2023-03-02T11:28:10.089Z,8.9
2023-03-02T11:33:16.310Z,9.0
2023-03-02T11:38:22.498Z,9.2
2023-03-02T11:43:28.710Z,9.3
2023-03-02T11:48:34.921Z,9.4
2023-03-02T11:53:41.201Z,9.6
2023-03-02T11:58:47.330Z,9.8
2023-03-02T12:03:53.538Z,9.9
2023-03-02T12:08:59.793Z,10.0
2023-03-02T12:14:05.953Z,10.1
2023-03-02T12:19:12.182Z,10.3
2023-03-02T12:24:18.404Z,10.4
2023-03-02T12:29:24.663Z,10.5
2023-03-02T12:34:31.373Z,10.7
2023-03-02T12:39:37.030Z,10.7
2023-03-02T12:44:43.203Z,10.8
2023-03-02T12:49:49.424Z,10.9
2023-03-02T12:54:55.623Z,11.0
2023-03-02T13:00:01.843Z,11.1
2023-03-02T13:05:08.043Z,11.3
2023-03-02T13:10:13.338Z,11.3
2023-03-02T13:15:19.472Z,11.5
2023-03-02T13:20:24.754Z,11.6
2023-03-02T13:25:30.918Z,11.8
2023-03-02T13:30:37.349Z,11.9
2023-03-02T13:35:43.333Z,12.0
2023-03-02T13:40:49.874Z,12.2
2023-03-02T13:45:55.807Z,12.3
2023-03-02T13:51:01.964Z,12.4
2023-03-02T13:56:08.277Z,12.5
2023-03-02T14:01:14.403Z,12.5
2023-03-02T14:06:20.579Z,12.6
2023-03-02T14:11:26.786Z,12.7
2023-03-02T14:16:33.334Z,12.7
2023-03-02T14:21:39.251Z,12.8
2023-03-02T14:26:45.416Z,12.8
2023-03-02T14:31:51.708Z,12.9
2023-03-02T14:36:57.968Z,12.9
2023-03-02T14:42:04.053Z,12.9
2023-03-02T14:47:10.254Z,12.9
2023-03-02T14:52:16.466Z,12.9
2023-03-02T14:57:22.664Z,12.9
2023-03-02T15:02:28.980Z,12.9
2023-03-02T15:07:34.162Z,12.9
2023-03-02T15:12:40.325Z,12.9
2023-03-02T15:17:46.539Z,12.8
2023-03-02T15:22:52.749Z,12.8
2023-03-02T15:27:57.977Z,12.8
2023-03-02T15:33:04.188Z,12.8
2023-03-02T15:38:10.393Z,12.8
2023-03-02T15:43:16.617Z,12.8
2023-03-02T15:48:22.814Z,12.7
2023-03-02T15:53:29.017Z,12.7
2023-03-02T15:58:35.221Z,12.6
2023-03-02T16:03:41.436Z,12.6
2023-03-02T16:08:47.640Z,12.5
2023-03-02T16:13:53.854Z,12.4
2023-03-02T16:19:00.048Z,12.4
2023-03-02T16:24:06.279Z,12.3
2023-03-02T16:29:12.496Z,12.2
2023-03-02T16:34:18.691Z,12.0
2023-03-02T16:39:24.892Z,11.8
2023-03-02T16:44:31.111Z,11.6
2023-03-02T16:49:37.301Z,11.4
2023-03-02T16:54:43.564Z,11.2
2023-03-02T16:59:49.720Z,11.0
2023-03-02T17:04:55.941Z,10.8
2023-03-02T17:10:02.140Z,10.6
2023-03-02T17:15:07.370Z,10.4
2023-03-02T17:20:13.583Z,10.3
2023-03-02T17:25:19.154Z,10.1
2023-03-02T17:30:25.023Z,9.9
2023-03-02T17:35:31.245Z,9.8
2023-03-02T17:40:37.441Z,9.6
2023-03-02T17:45:43.647Z,9.5
2023-03-02T17:50:49.847Z,9.3
2023-03-02T17:55:56.058Z,9.2
2023-03-02T18:01:02.270Z,9.0
2023-03-02T18:06:08.477Z,8.9
2023-03-02T18:11:14.684Z,8.8
2023-03-02T18:16:20.946Z,8.6
2023-03-02T18:21:27.092Z,8.5
2023-03-02T18:26:33.302Z,8.4
2023-03-02T18:31:39.848Z,8.3
2023-03-02T18:36:45.717Z,8.1
2023-03-02T18:41:51.939Z,8.0
2023-03-02T18:46:58.175Z,7.9
2023-03-02T18:52:04.336Z,7.8
2023-03-02T18:57:10.544Z,7.7
2023-03-02T19:02:16.827Z,7.6
2023-03-02T19:07:22.958Z,7.5
2023-03-02T19:12:28.198Z,7.4
2023-03-02T19:17:34.412Z,7.3
2023-03-02T19:22:39.643Z,7.2
2023-03-02T19:27:45.850Z,7.1
2023-03-02T19:32:52.058Z,7.0
2023-03-02T19:37:58.259Z,6.9
2023-03-02T19:43:04.469Z,6.8
2023-03-02T19:48:10.672Z,6.7
2023-03-02T19:53:16.890Z,6.6
2023-03-02T19:58:23.080Z,6.5
2023-03-02T20:03:29.297Z,6.5
2023-03-02T20:08:35.530Z,6.4
2023-03-02T20:13:41.731Z,6.2
2023-03-02T20:18:47.912Z,6.1
2023-03-02T20:23:54.131Z,6.1
2023-03-02T20:28:59.350Z,6.0
2023-03-02T20:34:05.573Z,5.9
2023-03-02T20:39:11.781Z,5.8
2023-03-02T20:44:17.971Z,5.7
2023-03-02T20:49:24.174Z,5.6
2023-03-02T20:54:30.395Z,5.5
2023-03-02T20:59:36.599Z,5.4
2023-03-02T21:04:42.870Z,5.4
2023-03-02T21:09:48.038Z,5.3
2023-03-02T21:14:54.237Z,5.2
2023-03-02T21:19:59.469Z,5.1
2023-03-02T21:25:05.682Z,5.1
2023-03-02T21:30:11.916Z,5.0
2023-03-02T21:35:18.122Z,5.0
2023-03-02T21:40:24.305Z,4.9
2023-03-02T21:45:30.513Z,4.8
2023-03-02T21:50:36.736Z,4.8
2023-03-02T21:55:42.927Z,4.7
2023-03-02T22:00:49.136Z,4.6
2023-03-02T22:05:55.344Z,4.6
2023-03-02T22:11:01.557Z,4.5
2023-03-02T22:16:07.804Z,4.4
2023-03-02T22:21:13.972Z,4.4
2023-03-02T22:26:20.177Z,4.3
2023-03-02T22:31:26.398Z,4.3
2023-03-02T22:36:32.583Z,4.2
2023-03-02T22:41:38.812Z,4.2
2023-03-02T22:46:45.063Z,4.1
2023-03-02T22:51:51.213Z,4.1
2023-03-02T22:56:57.427Z,4.0
2023-03-02T23:02:03.642Z,4.0
2023-03-02T23:07:08.861Z,3.9
2023-03-02T23:17:20.299Z,3.9
2023-03-02T23:22:26.518Z,3.8
2023-03-02T23:27:32.723Z,3.8
2023-03-02T23:32:38.953Z,3.7
2023-03-02T23:37:45.280Z,3.7
2023-03-02T23:42:51.336Z,3.6
2023-03-02T23:47:57.534Z,3.6
2023-03-02T23:53:04.055Z,3.5
2023-03-02T23:58:09.949Z,3.5
